Kokomo, Indiana
Current Conditions -  °F | °C
As of 10:15 AM on Friday 31 Oct 2014 (Local Time) from KOKK Reporting Station
Overcast Overcast  
Wind Chill: 29°   Ceiling: 2000
Heat Index: 39°   Visibility: 10mi
Dew Point: 36°   Wind: 21mph
Humidity: 87%   Direction: 320°NW
Pressure: 30.01"   Gusts: 24mph
Location:  40.49°N, 86.13°W
Report Text: KOKK 311415Z AUTO 32018G21KT 10SM SCT012 BKN020 OVC025 04/02 A3001 RMK AO1 P0001
Loading
Personal Weather Stations






























Interactive Weather Map
Tropical Storm Tracking
New forecast layout! Learn more

10-Day Weather Forecast

Advertisements
Track Severe Weather on mobile